sensor_id;sensor_type;location;lat;lon;timestamp;temperature;humidity
7174;DHT22;3628;48.654;8.932;2023-04-23T00:00:42;13.00;99.90
7174;DHT22;3628;48.654;8.932;2023-04-23T00:03:08;13.00;99.90
7174;DHT22;3628;48.654;8.932;2023-04-23T00:05:37;13.00;99.90
7174;DHT22;3628;48.654;8.932;2023-04-23T00:08:03;13.00;99.90
7174;DHT22;3628;48.654;8.932;2023-04-23T00:10:29;13.00;99.90
7174;DHT22;3628;48.654;8.932;2023-04-23T00:12:55;13.00;99.90
7174;DHT22;3628;48.654;8.932;2023-04-23T00:15:20;13.00;99.90
7174;DHT22;3628;48.654;8.932;2023-04-23T00:17:47;13.00;99.90
7174;DHT22;3628;48.654;8.932;2023-04-23T00:20:14;13.00;99.90
7174;DHT22;3628;48.654;8.932;2023-04-23T00:22:41;13.00;99.90
7174;DHT22;3628;48.654;8.932;2023-04-23T00:25:07;13.00;99.90
7174;DHT22;3628;48.654;8.932;2023-04-23T00:27:33;13.00;99.90
7174;DHT22;3628;48.654;8.932;2023-04-23T00:29:59;13.00;99.90
7174;DHT22;3628;48.654;8.932;2023-04-23T00:32:24;13.00;99.90
7174;DHT22;3628;48.654;8.932;2023-04-23T00:34:50;13.00;99.90
7174;DHT22;3628;48.654;8.932;2023-04-23T00:37:16;13.00;99.90
7174;DHT22;3628;48.654;8.932;2023-04-23T00:39:42;13.00;99.90
7174;DHT22;3628;48.654;8.932;2023-04-23T00:42:09;13.00;99.90
7174;DHT22;3628;48.654;8.932;2023-04-23T00:44:37;13.00;99.90
7174;DHT22;3628;48.654;8.932;2023-04-23T00:47:04;13.00;99.90
7174;DHT22;3628;48.654;8.932;2023-04-23T00:49:30;13.00;99.90
7174;DHT22;3628;48.654;8.932;2023-04-23T00:51:55;13.00;99.90
7174;DHT22;3628;48.654;8.932;2023-04-23T00:54:21;13.00;99.90
7174;DHT22;3628;48.654;8.932;2023-04-23T00:56:48;12.90;99.90
7174;DHT22;3628;48.654;8.932;2023-04-23T00:59:13;12.90;99.90
7174;DHT22;3628;48.654;8.932;2023-04-23T01:01:40;12.90;99.90
7174;DHT22;3628;48.654;8.932;2023-04-23T01:04:06;12.80;99.90
7174;DHT22;3628;48.654;8.932;2023-04-23T01:06:34;12.80;99.90
7174;DHT22;3628;48.654;8.932;2023-04-23T01:08:59;12.90;99.90
7174;DHT22;3628;48.654;8.932;2023-04-23T01:11:25;12.80;99.90
7174;DHT22;3628;48.654;8.932;2023-04-23T01:13:51;12.80;99.90
7174;DHT22;3628;48.654;8.932;2023-04-23T01:16:17;12.80;99.90
7174;DHT22;3628;48.654;8.932;2023-04-23T01:18:43;12.80;99.90
7174;DHT22;3628;48.654;8.932;2023-04-23T01:21:10;12.70;99.90
7174;DHT22;3628;48.654;8.932;2023-04-23T01:23:36;12.70;99.90
7174;DHT22;3628;48.654;8.932;2023-04-23T01:26:02;12.70;99.90
7174;DHT22;3628;48.654;8.932;2023-04-23T01:28:28;12.70;99.90
7174;DHT22;3628;48.654;8.932;2023-04-23T01:30:55;12.70;99.90
7174;DHT22;3628;48.654;8.932;2023-04-23T01:33:21;12.70;99.90
7174;DHT22;3628;48.654;8.932;2023-04-23T01:35:47;12.70;99.90
7174;DHT22;3628;48.654;8.932;2023-04-23T01:38:13;12.70;99.90
7174;DHT22;3628;48.654;8.932;2023-04-23T01:40:39;12.70;99.90
7174;DHT22;3628;48.654;8.932;2023-04-23T01:43:06;12.70;99.90
7174;DHT22;3628;48.654;8.932;2023-04-23T01:45:31;12.70;99.90
7174;DHT22;3628;48.654;8.932;2023-04-23T01:47:58;12.60;99.90
7174;DHT22;3628;48.654;8.932;2023-04-23T01:50:24;12.60;99.90
7174;DHT22;3628;48.654;8.932;2023-04-23T01:52:52;12.60;99.90
7174;DHT22;3628;48.654;8.932;2023-04-23T01:55:17;12.60;99.90
7174;DHT22;3628;48.654;8.932;2023-04-23T01:57:46;12.60;99.90
7174;DHT22;3628;48.654;8.932;2023-04-23T02:00:13;12.60;99.90
7174;DHT22;3628;48.654;8.932;2023-04-23T02:02:41;12.60;99.90
7174;DHT22;3628;48.654;8.932;2023-04-23T02:05:13;12.60;99.90
7174;DHT22;3628;48.654;8.932;2023-04-23T02:07:39;12.50;99.90
7174;DHT22;3628;48.654;8.932;2023-04-23T02:10:05;12.60;99.90
7174;DHT22;3628;48.654;8.932;2023-04-23T02:12:32;12.50;99.90
7174;DHT22;3628;48.654;8.932;2023-04-23T02:14:57;12.50;99.90
7174;DHT22;3628;48.654;8.932;2023-04-23T02:17:23;12.50;99.90
7174;DHT22;3628;48.654;8.932;2023-04-23T02:19:49;12.50;99.90
7174;DHT22;3628;48.654;8.932;2023-04-23T02:22:15;12.50;99.90
7174;DHT22;3628;48.654;8.932;2023-04-23T02:24:41;12.40;99.90
7174;DHT22;3628;48.654;8.932;2023-04-23T02:27:07;12.40;99.90
7174;DHT22;3628;48.654;8.932;2023-04-23T02:29:33;12.40;99.90
7174;DHT22;3628;48.654;8.932;2023-04-23T02:31:59;12.40;99.90
7174;DHT22;3628;48.654;8.932;2023-04-23T02:34:24;12.40;99.90
7174;DHT22;3628;48.654;8.932;2023-04-23T02:36:50;12.40;99.90
7174;DHT22;3628;48.654;8.932;2023-04-23T02:39:15;12.50;99.90
7174;DHT22;3628;48.654;8.932;2023-04-23T02:41:41;12.40;99.90
7174;DHT22;3628;48.654;8.932;2023-04-23T02:44:07;12.40;99.90
7174;DHT22;3628;48.654;8.932;2023-04-23T02:46:32;12.40;99.90
7174;DHT22;3628;48.654;8.932;2023-04-23T02:48:58;12.30;99.90
7174;DHT22;3628;48.654;8.932;2023-04-23T02:51:23;12.20;99.90
7174;DHT22;3628;48.654;8.932;2023-04-23T02:53:49;12.20;99.90
7174;DHT22;3628;48.654;8.932;2023-04-23T02:56:15;12.20;99.90
7174;DHT22;3628;48.654;8.932;2023-04-23T02:58:40;12.20;99.90
7174;DHT22;3628;48.654;8.932;2023-04-23T03:01:06;12.20;99.90
7174;DHT22;3628;48.654;8.932;2023-04-23T03:03:32;12.20;99.90
7174;DHT22;3628;48.654;8.932;2023-04-23T03:06:00;12.20;99.90
7174;DHT22;3628;48.654;8.932;2023-04-23T03:08:26;12.10;99.90
7174;DHT22;3628;48.654;8.932;2023-04-23T03:10:52;12.10;99.90
7174;DHT22;3628;48.654;8.932;2023-04-23T03:13:17;12.10;99.90
7174;DHT22;3628;48.654;8.932;2023-04-23T03:15:43;12.10;99.90
7174;DHT22;3628;48.654;8.932;2023-04-23T03:18:08;12.10;99.90
7174;DHT22;3628;48.654;8.932;2023-04-23T03:20:35;12.10;99.90
7174;DHT22;3628;48.654;8.932;2023-04-23T03:23:01;12.10;99.90
7174;DHT22;3628;48.654;8.932;2023-04-23T03:25:26;12.10;99.90
7174;DHT22;3628;48.654;8.932;2023-04-23T03:27:52;12.10;99.90
7174;DHT22;3628;48.654;8.932;2023-04-23T03:30:18;12.10;99.90
7174;DHT22;3628;48.654;8.932;2023-04-23T03:32:44;12.10;99.90
7174;DHT22;3628;48.654;8.932;2023-04-23T03:35:10;12.10;99.90
7174;DHT22;3628;48.654;8.932;2023-04-23T03:37:36;12.10;99.90
7174;DHT22;3628;48.654;8.932;2023-04-23T03:40:01;12.10;99.90
7174;DHT22;3628;48.654;8.932;2023-04-23T03:42:32;12.10;99.90
7174;DHT22;3628;48.654;8.932;2023-04-23T03:44:58;12.10;99.90
7174;DHT22;3628;48.654;8.932;2023-04-23T03:47:23;12.10;99.90
7174;DHT22;3628;48.654;8.932;2023-04-23T03:49:49;12.10;99.90
7174;DHT22;3628;48.654;8.932;2023-04-23T03:52:15;12.10;99.90
7174;DHT22;3628;48.654;8.932;2023-04-23T03:54:40;12.10;99.90
7174;DHT22;3628;48.654;8.932;2023-04-23T03:57:07;12.10;99.90
7174;DHT22;3628;48.654;8.932;2023-04-23T03:59:33;12.00;99.90
7174;DHT22;3628;48.654;8.932;2023-04-23T04:01:58;12.00;99.90
7174;DHT22;3628;48.654;8.932;2023-04-23T04:04:24;12.10;99.90
7174;DHT22;3628;48.654;8.932;2023-04-23T04:06:49;12.00;99.90
7174;DHT22;3628;48.654;8.932;2023-04-23T04:09:15;12.00;99.90
7174;DHT22;3628;48.654;8.932;2023-04-23T04:11:41;12.00;99.90
7174;DHT22;3628;48.654;8.932;2023-04-23T04:14:07;11.90;99.90
7174;DHT22;3628;48.654;8.932;2023-04-23T04:16:32;11.90;99.90
7174;DHT22;3628;48.654;8.932;2023-04-23T04:18:58;11.90;99.90
7174;DHT22;3628;48.654;8.932;2023-04-23T04:21:23;11.80;99.90
7174;DHT22;3628;48.654;8.932;2023-04-23T04:23:49;11.80;99.90
7174;DHT22;3628;48.654;8.932;2023-04-23T04:26:15;11.70;99.90
7174;DHT22;3628;48.654;8.932;2023-04-23T04:28:40;11.70;99.90
7174;DHT22;3628;48.654;8.932;2023-04-23T04:31:06;11.60;99.90
7174;DHT22;3628;48.654;8.932;2023-04-23T04:33:32;11.60;99.90
7174;DHT22;3628;48.654;8.932;2023-04-23T04:36:00;11.50;99.90
7174;DHT22;3628;48.654;8.932;2023-04-23T04:38:26;11.50;99.90
7174;DHT22;3628;48.654;8.932;2023-04-23T04:40:54;11.50;99.90
7174;DHT22;3628;48.654;8.932;2023-04-23T04:43:19;11.50;99.90
7174;DHT22;3628;48.654;8.932;2023-04-23T04:45:45;11.50;99.90
7174;DHT22;3628;48.654;8.932;2023-04-23T04:48:11;11.50;99.90
7174;DHT22;3628;48.654;8.932;2023-04-23T04:50:36;11.50;99.90
7174;DHT22;3628;48.654;8.932;2023-04-23T04:53:02;11.50;99.90
7174;DHT22;3628;48.654;8.932;2023-04-23T04:55:27;11.50;99.90
7174;DHT22;3628;48.654;8.932;2023-04-23T04:57:53;11.50;99.90
7174;DHT22;3628;48.654;8.932;2023-04-23T05:00:24;11.50;99.90
7174;DHT22;3628;48.654;8.932;2023-04-23T05:02:52;11.50;99.90
7174;DHT22;3628;48.654;8.932;2023-04-23T05:05:19;11.60;99.90
7174;DHT22;3628;48.654;8.932;2023-04-23T05:07:45;11.60;99.90
7174;DHT22;3628;48.654;8.932;2023-04-23T05:10:11;11.60;99.90
7174;DHT22;3628;48.654;8.932;2023-04-23T05:12:37;11.80;99.90
7174;DHT22;3628;48.654;8.932;2023-04-23T05:15:07;11.70;99.90
7174;DHT22;3628;48.654;8.932;2023-04-23T05:17:32;11.70;99.90
7174;DHT22;3628;48.654;8.932;2023-04-23T05:19:58;11.80;99.90
7174;DHT22;3628;48.654;8.932;2023-04-23T05:22:24;11.90;99.90
7174;DHT22;3628;48.654;8.932;2023-04-23T05:24:50;11.90;99.90
7174;DHT22;3628;48.654;8.932;2023-04-23T05:27:16;12.00;99.90
7174;DHT22;3628;48.654;8.932;2023-04-23T05:29:41;12.00;99.90
7174;DHT22;3628;48.654;8.932;2023-04-23T05:32:07;12.10;99.90
7174;DHT22;3628;48.654;8.932;2023-04-23T05:34:32;12.30;99.90
7174;DHT22;3628;48.654;8.932;2023-04-23T05:36:58;12.40;99.90
7174;DHT22;3628;48.654;8.932;2023-04-23T05:39:23;12.50;99.90
7174;DHT22;3628;48.654;8.932;2023-04-23T05:41:49;12.70;99.90
7174;DHT22;3628;48.654;8.932;2023-04-23T05:44:14;12.80;99.90
7174;DHT22;3628;48.654;8.932;2023-04-23T05:46:40;12.90;99.90
7174;DHT22;3628;48.654;8.932;2023-04-23T05:49:05;13.00;99.90
7174;DHT22;3628;48.654;8.932;2023-04-23T05:51:31;13.00;99.90
7174;DHT22;3628;48.654;8.932;2023-04-23T05:53:56;13.10;99.90
7174;DHT22;3628;48.654;8.932;2023-04-23T05:56:22;13.10;99.90
7174;DHT22;3628;48.654;8.932;2023-04-23T05:58:47;13.20;99.90
7174;DHT22;3628;48.654;8.932;2023-04-23T06:01:13;13.30;99.90
7174;DHT22;3628;48.654;8.932;2023-04-23T06:03:39;13.40;99.90
7174;DHT22;3628;48.654;8.932;2023-04-23T06:06:12;13.60;99.90
7174;DHT22;3628;48.654;8.932;2023-04-23T06:08:38;13.80;99.90
7174;DHT22;3628;48.654;8.932;2023-04-23T06:11:04;13.80;99.90
7174;DHT22;3628;48.654;8.932;2023-04-23T06:13:30;13.80;99.90
7174;DHT22;3628;48.654;8.932;2023-04-23T06:15:56;13.80;99.90
7174;DHT22;3628;48.654;8.932;2023-04-23T06:18:22;13.90;99.90
7174;DHT22;3628;48.654;8.932;2023-04-23T06:20:48;13.90;99.90
7174;DHT22;3628;48.654;8.932;2023-04-23T06:23:15;13.80;99.90
7174;DHT22;3628;48.654;8.932;2023-04-23T06:25:41;13.70;99.90
7174;DHT22;3628;48.654;8.932;2023-04-23T06:28:07;13.70;99.90
7174;DHT22;3628;48.654;8.932;2023-04-23T06:30:32;13.60;99.90
7174;DHT22;3628;48.654;8.932;2023-04-23T06:32:58;13.60;99.90
7174;DHT22;3628;48.654;8.932;2023-04-23T06:35:23;13.60;99.90
7174;DHT22;3628;48.654;8.932;2023-04-23T06:37:49;13.60;99.90
7174;DHT22;3628;48.654;8.932;2023-04-23T06:40:15;13.80;99.90
7174;DHT22;3628;48.654;8.932;2023-04-23T06:42:40;13.90;99.90
7174;DHT22;3628;48.654;8.932;2023-04-23T06:45:06;14.00;99.90
7174;DHT22;3628;48.654;8.932;2023-04-23T06:47:32;14.10;99.90
7174;DHT22;3628;48.654;8.932;2023-04-23T06:49:58;14.20;99.90
7174;DHT22;3628;48.654;8.932;2023-04-23T06:52:26;14.40;99.90
7174;DHT22;3628;48.654;8.932;2023-04-23T06:54:52;14.40;99.90
7174;DHT22;3628;48.654;8.932;2023-04-23T06:57:17;14.30;99.90
7174;DHT22;3628;48.654;8.932;2023-04-23T06:59:43;14.50;99.90
7174;DHT22;3628;48.654;8.932;2023-04-23T07:02:08;14.70;99.90
7174;DHT22;3628;48.654;8.932;2023-04-23T07:04:34;14.80;99.90
7174;DHT22;3628;48.654;8.932;2023-04-23T07:07:00;14.90;99.90
7174;DHT22;3628;48.654;8.932;2023-04-23T07:09:27;15.10;99.90
7174;DHT22;3628;48.654;8.932;2023-04-23T07:11:52;15.20;99.90
7174;DHT22;3628;48.654;8.932;2023-04-23T07:14:18;15.40;99.90
7174;DHT22;3628;48.654;8.932;2023-04-23T07:16:44;15.50;99.90
7174;DHT22;3628;48.654;8.932;2023-04-23T07:19:09;15.50;99.90
7174;DHT22;3628;48.654;8.932;2023-04-23T07:21:35;15.50;99.90
7174;DHT22;3628;48.654;8.932;2023-04-23T07:24:00;15.50;99.90
7174;DHT22;3628;48.654;8.932;2023-04-23T07:26:34;15.60;99.90
7174;DHT22;3628;48.654;8.932;2023-04-23T07:29:00;15.90;99.90
7174;DHT22;3628;48.654;8.932;2023-04-23T07:31:26;16.10;99.90
7174;DHT22;3628;48.654;8.932;2023-04-23T07:33:53;16.20;99.90
7174;DHT22;3628;48.654;8.932;2023-04-23T07:36:19;16.20;99.90
7174;DHT22;3628;48.654;8.932;2023-04-23T07:38:45;16.20;99.90
7174;DHT22;3628;48.654;8.932;2023-04-23T07:41:10;16.30;99.90
7174;DHT22;3628;48.654;8.932;2023-04-23T07:43:37;16.40;99.90
7174;DHT22;3628;48.654;8.932;2023-04-23T07:46:03;16.60;99.90
7174;DHT22;3628;48.654;8.932;2023-04-23T07:48:29;16.70;99.90
7174;DHT22;3628;48.654;8.932;2023-04-23T07:50:55;16.90;99.90
7174;DHT22;3628;48.654;8.932;2023-04-23T07:53:21;17.00;99.90
7174;DHT22;3628;48.654;8.932;2023-04-23T07:55:47;17.00;99.90
7174;DHT22;3628;48.654;8.932;2023-04-23T07:58:13;17.00;99.90
7174;DHT22;3628;48.654;8.932;2023-04-23T08:00:38;17.10;99.90
7174;DHT22;3628;48.654;8.932;2023-04-23T08:03:04;17.10;99.90
7174;DHT22;3628;48.654;8.932;2023-04-23T08:05:30;17.10;99.90
7174;DHT22;3628;48.654;8.932;2023-04-23T08:07:56;17.00;99.90
7174;DHT22;3628;48.654;8.932;2023-04-23T08:10:21;17.00;99.90
7174;DHT22;3628;48.654;8.932;2023-04-23T08:12:47;17.00;99.90
7174;DHT22;3628;48.654;8.932;2023-04-23T08:15:12;17.00;99.90
7174;DHT22;3628;48.654;8.932;2023-04-23T08:17:38;16.90;99.90
7174;DHT22;3628;48.654;8.932;2023-04-23T08:20:04;16.90;99.90
7174;DHT22;3628;48.654;8.932;2023-04-23T08:22:33;17.10;99.90
7174;DHT22;3628;48.654;8.932;2023-04-23T08:24:59;17.10;99.90
7174;DHT22;3628;48.654;8.932;2023-04-23T08:27:24;17.30;99.90
7174;DHT22;3628;48.654;8.932;2023-04-23T08:29:50;17.50;99.90
7174;DHT22;3628;48.654;8.932;2023-04-23T08:32:16;17.80;99.90
7174;DHT22;3628;48.654;8.932;2023-04-23T08:34:41;18.00;99.90
7174;DHT22;3628;48.654;8.932;2023-04-23T08:37:07;18.40;99.90
7174;DHT22;3628;48.654;8.932;2023-04-23T08:39:33;18.60;99.90
7174;DHT22;3628;48.654;8.932;2023-04-23T08:42:09;18.90;99.90
7174;DHT22;3628;48.654;8.932;2023-04-23T08:44:37;19.20;99.90
7174;DHT22;3628;48.654;8.932;2023-04-23T08:47:04;19.50;99.90
7174;DHT22;3628;48.654;8.932;2023-04-23T08:49:32;19.70;99.90
7174;DHT22;3628;48.654;8.932;2023-04-23T08:52:05;19.80;99.90
7174;DHT22;3628;48.654;8.932;2023-04-23T08:54:36;19.60;99.90
7174;DHT22;3628;48.654;8.932;2023-04-23T08:57:06;19.60;99.90
7174;DHT22;3628;48.654;8.932;2023-04-23T08:59:33;19.80;99.90
7174;DHT22;3628;48.654;8.932;2023-04-23T09:02:00;19.90;99.90
7174;DHT22;3628;48.654;8.932;2023-04-23T09:04:32;19.90;99.90
7174;DHT22;3628;48.654;8.932;2023-04-23T09:06:59;20.10;99.60
7174;DHT22;3628;48.654;8.932;2023-04-23T09:09:28;20.10;97.90
7174;DHT22;3628;48.654;8.932;2023-04-23T09:11:55;20.20;97.40
7174;DHT22;3628;48.654;8.932;2023-04-23T09:14:25;20.20;96.20
7174;DHT22;3628;48.654;8.932;2023-04-23T09:16:51;20.30;95.30
7174;DHT22;3628;48.654;8.932;2023-04-23T09:19:17;20.30;94.00
7174;DHT22;3628;48.654;8.932;2023-04-23T09:21:44;20.20;92.30
7174;DHT22;3628;48.654;8.932;2023-04-23T09:24:10;20.20;93.00
7174;DHT22;3628;48.654;8.932;2023-04-23T09:26:44;20.40;92.70
7174;DHT22;3628;48.654;8.932;2023-04-23T09:29:21;20.70;92.60
7174;DHT22;3628;48.654;8.932;2023-04-23T09:31:53;20.50;91.20
7174;DHT22;3628;48.654;8.932;2023-04-23T09:34:20;20.70;91.50
7174;DHT22;3628;48.654;8.932;2023-04-23T09:36:48;20.80;90.90
7174;DHT22;3628;48.654;8.932;2023-04-23T09:39:26;21.00;90.80
7174;DHT22;3628;48.654;8.932;2023-04-23T09:41:52;21.10;87.90
7174;DHT22;3628;48.654;8.932;2023-04-23T09:44:19;21.30;89.20
7174;DHT22;3628;48.654;8.932;2023-04-23T09:46:47;21.50;89.80
7174;DHT22;3628;48.654;8.932;2023-04-23T09:49:13;21.50;87.30
7174;DHT22;3628;48.654;8.932;2023-04-23T09:51:44;21.50;85.90
7174;DHT22;3628;48.654;8.932;2023-04-23T09:54:14;21.70;84.80
7174;DHT22;3628;48.654;8.932;2023-04-23T09:56:44;21.90;86.40
7174;DHT22;3628;48.654;8.932;2023-04-23T09:59:20;22.00;86.30
7174;DHT22;3628;48.654;8.932;2023-04-23T10:01:45;22.20;83.60
7174;DHT22;3628;48.654;8.932;2023-04-23T10:04:13;22.40;83.90
7174;DHT22;3628;48.654;8.932;2023-04-23T10:06:41;22.30;83.30
7174;DHT22;3628;48.654;8.932;2023-04-23T10:09:07;22.50;80.90
7174;DHT22;3628;48.654;8.932;2023-04-23T10:11:33;22.70;78.80
7174;DHT22;3628;48.654;8.932;2023-04-23T10:13:59;22.40;76.60
7174;DHT22;3628;48.654;8.932;2023-04-23T10:16:25;22.10;75.40
7174;DHT22;3628;48.654;8.932;2023-04-23T10:18:51;22.00;75.50
7174;DHT22;3628;48.654;8.932;2023-04-23T10:21:19;22.20;75.30
7174;DHT22;3628;48.654;8.932;2023-04-23T10:23:49;22.40;76.80
7174;DHT22;3628;48.654;8.932;2023-04-23T10:26:15;22.40;75.90
7174;DHT22;3628;48.654;8.932;2023-04-23T10:28:46;22.20;76.00
7174;DHT22;3628;48.654;8.932;2023-04-23T10:31:12;22.20;77.10
7174;DHT22;3628;48.654;8.932;2023-04-23T10:33:38;21.90;75.90
7174;DHT22;3628;48.654;8.932;2023-04-23T10:36:05;21.80;75.00
7174;DHT22;3628;48.654;8.932;2023-04-23T10:38:31;22.10;76.00
7174;DHT22;3628;48.654;8.932;2023-04-23T10:41:00;22.30;75.70
7174;DHT22;3628;48.654;8.932;2023-04-23T10:43:26;22.50;75.40
7174;DHT22;3628;48.654;8.932;2023-04-23T10:45:52;22.50;74.70
7174;DHT22;3628;48.654;8.932;2023-04-23T10:48:19;22.40;74.20
7174;DHT22;3628;48.654;8.932;2023-04-23T10:50:45;22.80;73.70
7174;DHT22;3628;48.654;8.932;2023-04-23T10:53:19;23.00;72.40
7174;DHT22;3628;48.654;8.932;2023-04-23T10:55:47;23.30;70.60
7174;DHT22;3628;48.654;8.932;2023-04-23T10:58:13;23.50;71.20
7174;DHT22;3628;48.654;8.932;2023-04-23T11:05:59;23.60;70.10
7174;DHT22;3628;48.654;8.932;2023-04-23T11:08:25;23.40;69.70
7174;DHT22;3628;48.654;8.932;2023-04-23T11:10:54;23.40;70.40
7174;DHT22;3628;48.654;8.932;2023-04-23T11:13:23;23.30;69.90
7174;DHT22;3628;48.654;8.932;2023-04-23T11:16:15;23.30;70.50
7174;DHT22;3628;48.654;8.932;2023-04-23T11:21:20;23.00;69.20
7174;DHT22;3628;48.654;8.932;2023-04-23T11:23:46;22.80;70.60
7174;DHT22;3628;48.654;8.932;2023-04-23T11:26:15;22.50;71.80
7174;DHT22;3628;48.654;8.932;2023-04-23T11:28:42;22.80;73.10
7174;DHT22;3628;48.654;8.932;2023-04-23T11:31:08;23.00;72.50
7174;DHT22;3628;48.654;8.932;2023-04-23T11:33:35;22.90;71.20
7174;DHT22;3628;48.654;8.932;2023-04-23T11:36:02;23.10;71.20
7174;DHT22;3628;48.654;8.932;2023-04-23T11:38:31;23.30;70.80
7174;DHT22;3628;48.654;8.932;2023-04-23T11:41:02;23.10;70.80
7174;DHT22;3628;48.654;8.932;2023-04-23T11:43:29;23.20;70.30
7174;DHT22;3628;48.654;8.932;2023-04-23T11:45:55;23.10;71.20
7174;DHT22;3628;48.654;8.932;2023-04-23T11:48:22;23.30;68.70
7174;DHT22;3628;48.654;8.932;2023-04-23T11:50:48;23.60;69.30
7174;DHT22;3628;48.654;8.932;2023-04-23T11:53:13;23.40;68.20
7174;DHT22;3628;48.654;8.932;2023-04-23T11:55:40;23.50;68.60
7174;DHT22;3628;48.654;8.932;2023-04-23T11:58:08;23.70;69.10
7174;DHT22;3628;48.654;8.932;2023-04-23T12:00:35;23.60;67.60
7174;DHT22;3628;48.654;8.932;2023-04-23T12:03:02;23.80;67.00
7174;DHT22;3628;48.654;8.932;2023-04-23T12:05:39;23.70;66.80
7174;DHT22;3628;48.654;8.932;2023-04-23T12:08:06;23.50;67.50
7174;DHT22;3628;48.654;8.932;2023-04-23T12:10:33;23.60;69.30
7174;DHT22;3628;48.654;8.932;2023-04-23T12:13:05;23.50;68.60
7174;DHT22;3628;48.654;8.932;2023-04-23T12:15:31;22.90;68.40
7174;DHT22;3628;48.654;8.932;2023-04-23T12:18:17;23.00;69.10
7174;DHT22;3628;48.654;8.932;2023-04-23T12:20:44;23.30;68.60
7174;DHT22;3628;48.654;8.932;2023-04-23T12:23:10;23.40;70.00
7174;DHT22;3628;48.654;8.932;2023-04-23T12:25:36;23.10;69.30
7174;DHT22;3628;48.654;8.932;2023-04-23T12:28:06;23.10;70.20
7174;DHT22;3628;48.654;8.932;2023-04-23T12:30:33;23.20;69.10
7174;DHT22;3628;48.654;8.932;2023-04-23T12:33:03;23.30;68.70
7174;DHT22;3628;48.654;8.932;2023-04-23T12:35:41;23.20;67.50
7174;DHT22;3628;48.654;8.932;2023-04-23T12:38:07;23.30;67.50
7174;DHT22;3628;48.654;8.932;2023-04-23T12:40:46;23.20;67.50
7174;DHT22;3628;48.654;8.932;2023-04-23T12:43:11;23.50;69.90
7174;DHT22;3628;48.654;8.932;2023-04-23T12:45:37;23.70;71.40
7174;DHT22;3628;48.654;8.932;2023-04-23T12:48:03;23.80;68.30
7174;DHT22;3628;48.654;8.932;2023-04-23T12:50:28;23.80;67.70
7174;DHT22;3628;48.654;8.932;2023-04-23T12:52:54;24.00;68.00
7174;DHT22;3628;48.654;8.932;2023-04-23T12:55:20;24.00;66.90
7174;DHT22;3628;48.654;8.932;2023-04-23T12:57:45;23.80;66.20
7174;DHT22;3628;48.654;8.932;2023-04-23T13:00:11;23.70;66.10
7174;DHT22;3628;48.654;8.932;2023-04-23T13:02:37;23.50;65.70
7174;DHT22;3628;48.654;8.932;2023-04-23T13:05:03;23.40;66.80
7174;DHT22;3628;48.654;8.932;2023-04-23T13:07:28;23.40;67.20
7174;DHT22;3628;48.654;8.932;2023-04-23T13:09:54;23.40;67.60
7174;DHT22;3628;48.654;8.932;2023-04-23T13:12:21;23.40;66.40
7174;DHT22;3628;48.654;8.932;2023-04-23T13:14:47;23.70;66.90
7174;DHT22;3628;48.654;8.932;2023-04-23T13:17:13;23.80;66.30
7174;DHT22;3628;48.654;8.932;2023-04-23T13:19:39;23.90;64.80
7174;DHT22;3628;48.654;8.932;2023-04-23T13:22:05;23.80;65.20
7174;DHT22;3628;48.654;8.932;2023-04-23T13:24:31;23.50;65.50
7174;DHT22;3628;48.654;8.932;2023-04-23T13:26:56;23.30;63.40
7174;DHT22;3628;48.654;8.932;2023-04-23T13:29:23;23.10;62.30
7174;DHT22;3628;48.654;8.932;2023-04-23T13:31:52;22.90;60.10
7174;DHT22;3628;48.654;8.932;2023-04-23T13:34:17;22.60;59.80
7174;DHT22;3628;48.654;8.932;2023-04-23T13:36:43;22.30;61.10
7174;DHT22;3628;48.654;8.932;2023-04-23T13:39:09;22.60;62.60
7174;DHT22;3628;48.654;8.932;2023-04-23T13:41:37;22.60;61.10
7174;DHT22;3628;48.654;8.932;2023-04-23T13:44:03;22.50;63.00
7174;DHT22;3628;48.654;8.932;2023-04-23T13:46:28;22.50;60.90
7174;DHT22;3628;48.654;8.932;2023-04-23T13:48:54;22.50;60.20
7174;DHT22;3628;48.654;8.932;2023-04-23T13:51:20;22.80;59.80
7174;DHT22;3628;48.654;8.932;2023-04-23T13:53:46;23.00;60.30
7174;DHT22;3628;48.654;8.932;2023-04-23T13:56:12;23.00;60.50
7174;DHT22;3628;48.654;8.932;2023-04-23T13:58:38;23.00;59.70
7174;DHT22;3628;48.654;8.932;2023-04-23T14:01:07;23.10;59.30
7174;DHT22;3628;48.654;8.932;2023-04-23T14:03:33;23.10;59.60
7174;DHT22;3628;48.654;8.932;2023-04-23T14:05:58;23.00;59.20
7174;DHT22;3628;48.654;8.932;2023-04-23T14:08:24;22.90;60.00
7174;DHT22;3628;48.654;8.932;2023-04-23T14:10:50;22.80;58.60
7174;DHT22;3628;48.654;8.932;2023-04-23T14:13:15;23.00;61.10
7174;DHT22;3628;48.654;8.932;2023-04-23T14:15:41;23.10;59.90
7174;DHT22;3628;48.654;8.932;2023-04-23T14:18:07;23.20;60.50
7174;DHT22;3628;48.654;8.932;2023-04-23T14:20:32;23.10;60.90
7174;DHT22;3628;48.654;8.932;2023-04-23T14:23:10;23.00;59.30
7174;DHT22;3628;48.654;8.932;2023-04-23T14:25:40;23.00;60.80
7174;DHT22;3628;48.654;8.932;2023-04-23T14:30:56;22.90;60.70
7174;DHT22;3628;48.654;8.932;2023-04-23T14:33:22;22.80;61.30
7174;DHT22;3628;48.654;8.932;2023-04-23T14:35:48;22.50;63.40
7174;DHT22;3628;48.654;8.932;2023-04-23T14:38:13;22.30;63.00
7174;DHT22;3628;48.654;8.932;2023-04-23T14:40:39;22.20;63.40
7174;DHT22;3628;48.654;8.932;2023-04-23T14:43:04;22.20;64.10
7174;DHT22;3628;48.654;8.932;2023-04-23T14:45:31;22.20;64.50
7174;DHT22;3628;48.654;8.932;2023-04-23T14:47:57;22.40;65.30
7174;DHT22;3628;48.654;8.932;2023-04-23T14:50:23;22.50;65.60
7174;DHT22;3628;48.654;8.932;2023-04-23T14:52:49;22.50;66.00
7174;DHT22;3628;48.654;8.932;2023-04-23T14:55:15;22.50;65.80
7174;DHT22;3628;48.654;8.932;2023-04-23T14:57:43;22.40;65.90
7174;DHT22;3628;48.654;8.932;2023-04-23T15:00:09;22.20;67.10
7174;DHT22;3628;48.654;8.932;2023-04-23T15:02:40;22.00;67.40
7174;DHT22;3628;48.654;8.932;2023-04-23T15:05:07;21.80;66.90
7174;DHT22;3628;48.654;8.932;2023-04-23T15:07:37;21.70;67.50
7174;DHT22;3628;48.654;8.932;2023-04-23T15:10:04;21.50;68.20
7174;DHT22;3628;48.654;8.932;2023-04-23T15:17:49;20.80;75.30
7174;DHT22;3628;48.654;8.932;2023-04-23T15:20:15;20.30;81.60
7174;DHT22;3628;48.654;8.932;2023-04-23T15:22:41;19.30;93.00
7174;DHT22;3628;48.654;8.932;2023-04-23T15:25:07;18.50;98.60
7174;DHT22;3628;48.654;8.932;2023-04-23T15:27:33;18.00;99.90
7174;DHT22;3628;48.654;8.932;2023-04-23T15:29:58;17.70;99.90
7174;DHT22;3628;48.654;8.932;2023-04-23T15:32:24;17.50;99.90
7174;DHT22;3628;48.654;8.932;2023-04-23T15:34:49;17.50;99.90
7174;DHT22;3628;48.654;8.932;2023-04-23T15:37:15;17.40;99.90
7174;DHT22;3628;48.654;8.932;2023-04-23T15:39:40;17.60;99.90
7174;DHT22;3628;48.654;8.932;2023-04-23T15:42:06;17.60;99.90
7174;DHT22;3628;48.654;8.932;2023-04-23T15:44:32;17.80;99.90
7174;DHT22;3628;48.654;8.932;2023-04-23T15:46:57;18.00;99.90
7174;DHT22;3628;48.654;8.932;2023-04-23T15:49:25;18.20;99.90
7174;DHT22;3628;48.654;8.932;2023-04-23T15:51:51;18.30;99.90
7174;DHT22;3628;48.654;8.932;2023-04-23T15:54:18;18.30;99.90
7174;DHT22;3628;48.654;8.932;2023-04-23T15:56:44;18.40;99.90
7174;DHT22;3628;48.654;8.932;2023-04-23T15:59:09;18.40;99.90
7174;DHT22;3628;48.654;8.932;2023-04-23T16:01:35;18.30;99.90
7174;DHT22;3628;48.654;8.932;2023-04-23T16:04:00;18.30;99.90
7174;DHT22;3628;48.654;8.932;2023-04-23T16:06:26;18.10;99.90
7174;DHT22;3628;48.654;8.932;2023-04-23T16:08:51;18.00;99.90
7174;DHT22;3628;48.654;8.932;2023-04-23T16:11:17;17.90;99.90
7174;DHT22;3628;48.654;8.932;2023-04-23T16:13:43;17.60;99.90